createdAt,value
2022-10-12T00:00:29.383Z,7.10
2022-10-12T00:02:56.812Z,6.68
2022-10-12T00:05:24.174Z,6.45
2022-10-12T00:07:51.525Z,6.32
2022-10-12T00:10:19.042Z,6.68
2022-10-12T00:12:46.380Z,6.78
2022-10-12T00:15:13.734Z,7.05
2022-10-12T00:17:41.119Z,7.10
2022-10-12T00:20:08.761Z,7.13
2022-10-12T00:22:36.065Z,6.80
2022-10-12T00:25:03.668Z,6.40
2022-10-12T00:27:31.045Z,6.25
2022-10-12T00:29:58.408Z,6.68
2022-10-12T00:32:25.757Z,6.75
2022-10-12T00:34:53.220Z,6.45
2022-10-12T00:37:20.535Z,6.40
2022-10-12T00:39:48.676Z,6.72
2022-10-12T00:42:18.994Z,6.80
2022-10-12T00:44:48.735Z,7.07
2022-10-12T00:47:38.469Z,6.43
2022-10-12T00:50:18.786Z,6.53
2022-10-12T00:53:01.363Z,7.47
2022-10-12T00:55:36.472Z,6.97
2022-10-12T00:58:06.513Z,6.43
2022-10-12T01:00:35.411Z,6.93
2022-10-12T01:03:04.903Z,6.38
2022-10-12T01:05:33.087Z,6.80
2022-10-12T01:08:02.592Z,6.90
2022-10-12T01:10:29.949Z,7.10
2022-10-12T01:12:57.471Z,6.70
2022-10-12T01:15:31.418Z,6.78
2022-10-12T01:18:45.511Z,7.03
2022-10-12T01:21:21.251Z,6.53
2022-10-12T01:24:13.062Z,6.97
2022-10-12T01:26:43.213Z,6.75
2022-10-12T01:29:22.349Z,6.18
2022-10-12T01:31:57.693Z,7.00
2022-10-12T01:34:25.006Z,6.53
2022-10-12T01:37:05.235Z,6.50
2022-10-12T01:39:43.038Z,6.28
2022-10-12T01:42:17.877Z,5.95
2022-10-12T01:44:45.259Z,5.68
2022-10-12T01:47:14.002Z,5.40
2022-10-12T01:49:41.597Z,5.57
2022-10-12T01:52:21.135Z,5.68
2022-10-12T01:54:51.497Z,5.68
2022-10-12T01:57:38.454Z,5.28
2022-10-12T02:00:15.202Z,5.32
2022-10-12T02:03:00.517Z,6.35
2022-10-12T02:05:34.646Z,5.45
2022-10-12T02:08:09.242Z,5.88
2022-10-12T02:10:58.519Z,5.60
2022-10-12T02:13:30.263Z,5.53
2022-10-12T02:16:01.667Z,5.55
2022-10-12T02:18:29.413Z,5.90
2022-10-12T02:20:59.916Z,5.30
2022-10-12T02:23:28.732Z,5.43
2022-10-12T02:26:00.604Z,5.82
2022-10-12T02:31:35.706Z,5.63
2022-10-12T02:34:11.102Z,5.65
2022-10-12T02:36:50.677Z,5.05
2022-10-12T02:39:23.992Z,4.93
2022-10-12T02:41:57.625Z,5.45
2022-10-12T02:44:33.357Z,4.90
2022-10-12T02:47:04.419Z,4.88
2022-10-12T02:49:33.047Z,5.10
2022-10-12T02:52:01.966Z,5.10
2022-10-12T02:54:30.099Z,4.78
2022-10-12T02:56:57.450Z,5.25
2022-10-12T02:59:24.955Z,5.18
2022-10-12T03:01:52.328Z,5.57
2022-10-12T03:04:20.044Z,5.38
2022-10-12T03:06:47.429Z,5.32
2022-10-12T03:09:14.728Z,5.53
2022-10-12T03:11:44.898Z,5.78
2022-10-12T03:14:13.591Z,5.53
2022-10-12T03:16:41.385Z,5.35
2022-10-12T03:19:09.028Z,5.40
2022-10-12T03:21:36.390Z,5.07
2022-10-12T03:24:03.710Z,6.32
2022-10-12T03:26:31.071Z,5.82
2022-10-12T03:28:58.594Z,5.63
2022-10-12T03:31:25.944Z,5.60
2022-10-12T03:33:53.358Z,6.50
2022-10-12T03:36:20.771Z,6.18
2022-10-12T03:38:48.339Z,6.03
2022-10-12T03:41:15.688Z,6.35
2022-10-12T03:43:43.049Z,5.75
2022-10-12T03:46:10.364Z,6.30
2022-10-12T03:48:37.788Z,6.38
2022-10-12T03:51:05.261Z,6.45
2022-10-12T03:53:32.794Z,5.70
2022-10-12T03:56:00.222Z,6.20
2022-10-12T03:58:27.532Z,5.75
2022-10-12T04:00:55.375Z,6.05
2022-10-12T04:03:22.788Z,6.10
2022-10-12T04:05:57.910Z,5.97
2022-10-12T04:08:26.792Z,6.30
2022-10-12T04:10:54.639Z,5.65
2022-10-12T04:13:22.044Z,6.13
2022-10-12T04:15:49.611Z,5.72
2022-10-12T04:18:16.910Z,5.72
2022-10-12T04:20:47.615Z,5.63
2022-10-12T04:23:14.962Z,5.35
2022-10-12T04:25:42.342Z,5.70
2022-10-12T04:28:09.663Z,5.60
2022-10-12T04:30:37.120Z,5.72
2022-10-12T04:33:05.322Z,5.38
2022-10-12T04:35:32.782Z,5.50
2022-10-12T04:38:00.166Z,5.05
2022-10-12T04:40:27.513Z,5.75
2022-10-12T04:42:56.147Z,5.40
2022-10-12T04:45:23.659Z,6.00
2022-10-12T04:47:51.063Z,5.82
2022-10-12T04:50:18.451Z,5.90
2022-10-12T04:52:45.823Z,5.72
2022-10-12T04:55:13.620Z,5.53
2022-10-12T04:57:41.281Z,5.90
2022-10-12T05:00:10.668Z,5.72
2022-10-12T05:02:37.953Z,5.70
2022-10-12T05:05:05.651Z,6.00
2022-10-12T05:07:33.019Z,5.25
2022-10-12T05:10:00.580Z,5.78
2022-10-12T05:12:27.898Z,5.25
2022-10-12T05:14:55.392Z,5.68
2022-10-12T05:17:22.712Z,5.57
2022-10-12T05:19:53.050Z,5.65
2022-10-12T05:22:20.359Z,5.63
2022-10-12T05:24:51.389Z,5.57
2022-10-12T05:27:21.182Z,5.50
2022-10-12T05:29:48.727Z,5.68
2022-10-12T05:32:17.148Z,5.30
2022-10-12T05:34:44.732Z,5.10
2022-10-12T05:37:12.023Z,5.32
2022-10-12T05:39:40.682Z,5.40
2022-10-12T05:42:08.061Z,5.45
2022-10-12T05:44:35.622Z,5.15
2022-10-12T05:47:03.097Z,5.85
2022-10-12T05:49:31.027Z,5.68
2022-10-12T05:51:58.481Z,5.60
2022-10-12T05:54:26.068Z,5.63
2022-10-12T05:56:53.850Z,5.18
2022-10-12T05:59:21.950Z,5.13
2022-10-12T06:01:49.936Z,5.15
2022-10-12T06:04:17.454Z,5.57
2022-10-12T06:06:44.774Z,5.65
2022-10-12T06:09:12.981Z,5.57
2022-10-12T06:11:40.428Z,5.60
2022-10-12T06:14:07.883Z,5.30
2022-10-12T06:16:35.208Z,5.22
2022-10-12T06:19:02.454Z,5.38
2022-10-12T06:21:34.324Z,5.72
2022-10-12T06:24:02.201Z,6.03
2022-10-12T06:26:31.512Z,4.95
2022-10-12T06:29:00.809Z,5.35
2022-10-12T06:31:29.286Z,5.63
2022-10-12T06:33:56.660Z,5.35
2022-10-12T06:36:24.122Z,5.00
2022-10-12T06:38:51.587Z,5.47
2022-10-12T06:41:18.960Z,4.80
2022-10-12T06:43:46.321Z,5.18
2022-10-12T06:46:13.670Z,5.40
2022-10-12T06:48:41.165Z,5.40
2022-10-12T06:51:08.665Z,5.30
2022-10-12T06:53:36.691Z,5.10
2022-10-12T06:56:08.235Z,5.13
2022-10-12T06:58:35.938Z,4.97
2022-10-12T07:01:04.606Z,4.85
2022-10-12T07:03:32.567Z,5.90
2022-10-12T07:06:12.360Z,5.35
2022-10-12T07:08:41.408Z,5.28
2022-10-12T07:11:11.644Z,5.50
2022-10-12T07:13:39.839Z,5.63
2022-10-12T07:16:10.332Z,5.85
2022-10-12T07:18:39.259Z,5.10
2022-10-12T07:21:06.711Z,5.70
2022-10-12T07:23:34.912Z,5.30
2022-10-12T07:26:02.796Z,6.15
2022-10-12T07:28:30.227Z,6.47
2022-10-12T07:31:03.160Z,6.47
2022-10-12T07:33:34.685Z,6.43
2022-10-12T07:36:13.794Z,6.25
2022-10-12T07:38:45.318Z,6.13
2022-10-12T07:41:13.616Z,6.45
2022-10-12T07:43:41.319Z,6.13
2022-10-12T07:46:08.919Z,5.88
2022-10-12T07:48:36.429Z,6.20
2022-10-12T07:51:08.815Z,5.60
2022-10-12T07:53:38.117Z,6.22
2022-10-12T07:56:07.992Z,5.40
2022-10-12T07:58:35.337Z,5.88
2022-10-12T08:01:07.511Z,5.95
2022-10-12T08:03:35.112Z,5.57
2022-10-12T08:06:13.691Z,5.15
2022-10-12T08:08:42.700Z,5.47
2022-10-12T08:11:12.492Z,5.22
2022-10-12T08:13:41.178Z,4.88
2022-10-12T08:16:11.802Z,5.80
2022-10-12T08:18:39.451Z,4.88
2022-10-12T08:21:08.960Z,6.05
2022-10-12T08:23:37.162Z,5.07
2022-10-12T08:26:05.482Z,5.25
2022-10-12T08:28:34.336Z,5.65
2022-10-12T08:31:06.434Z,5.65
2022-10-12T08:33:35.165Z,4.93
2022-10-12T08:36:04.561Z,4.70
2022-10-12T08:38:35.078Z,4.20
2022-10-12T08:41:30.269Z,4.50
2022-10-12T08:44:27.294Z,3.88
2022-10-12T08:47:10.041Z,4.22
2022-10-12T08:49:40.239Z,3.55
2022-10-12T08:52:28.686Z,3.95
2022-10-12T08:55:00.754Z,4.07
2022-10-12T08:57:28.215Z,4.18
2022-10-12T08:59:55.613Z,3.50
2022-10-12T09:02:45.024Z,3.72
2022-10-12T09:05:21.713Z,3.47
2022-10-12T09:08:07.360Z,3.30
2022-10-12T09:10:49.814Z,3.67
2022-10-12T09:13:35.707Z,3.63
2022-10-12T09:16:23.096Z,3.20
2022-10-12T09:18:55.169Z,3.70
2022-10-12T09:21:25.442Z,3.88
2022-10-12T09:23:56.693Z,4.10
2022-10-12T09:28:58.621Z,3.67
2022-10-12T09:31:38.640Z,4.15
2022-10-12T09:34:08.692Z,3.47
2022-10-12T09:36:38.711Z,3.42
2022-10-12T09:39:17.165Z,3.78
2022-10-12T09:41:46.809Z,3.75
2022-10-12T09:44:26.639Z,4.05
2022-10-12T09:46:58.577Z,3.88
2022-10-12T09:49:45.063Z,3.60
2022-10-12T09:52:15.248Z,3.63
2022-10-12T09:54:49.028Z,3.60
2022-10-12T09:57:30.531Z,3.45
2022-10-12T10:02:26.774Z,3.15
2022-10-12T10:04:55.103Z,3.35
2022-10-12T10:07:28.330Z,2.92
2022-10-12T10:10:16.973Z,2.90
2022-10-12T10:12:53.525Z,2.53
2022-10-12T10:15:23.997Z,3.00
2022-10-12T10:17:54.718Z,3.15
2022-10-12T10:20:49.820Z,3.60
2022-10-12T10:23:25.888Z,3.45
2022-10-12T10:25:58.071Z,3.28
2022-10-12T10:28:30.059Z,3.15
2022-10-12T10:31:04.389Z,3.45
2022-10-12T10:33:34.059Z,4.10
2022-10-12T10:36:22.290Z,3.30
2022-10-12T10:39:05.413Z,3.33
2022-10-12T10:41:38.803Z,4.00
2022-10-12T10:44:27.162Z,3.88
2022-10-12T10:46:57.170Z,3.70
2022-10-12T10:49:59.273Z,3.67
2022-10-12T10:52:30.115Z,3.63
2022-10-12T10:55:20.631Z,3.70
2022-10-12T10:58:05.456Z,4.00
2022-10-12T11:00:40.085Z,4.60
2022-10-12T11:03:18.842Z,4.28
2022-10-12T11:05:54.683Z,4.47
2022-10-12T11:08:30.533Z,4.30
2022-10-12T11:11:02.510Z,3.88
2022-10-12T11:16:09.082Z,4.47
2022-10-12T11:18:46.471Z,4.60
2022-10-12T11:21:26.734Z,3.47
2022-10-12T11:24:02.969Z,3.67
2022-10-12T11:26:43.585Z,3.30
2022-10-12T11:29:14.901Z,3.67
2022-10-12T11:31:49.230Z,3.97
2022-10-12T11:34:20.807Z,4.20
2022-10-12T11:37:17.702Z,5.72
2022-10-12T11:39:44.902Z,3.70
2022-10-12T11:42:21.699Z,3.15
2022-10-12T11:44:50.201Z,3.40
2022-10-12T11:47:29.988Z,3.72
2022-10-12T11:50:20.797Z,3.83
2022-10-12T11:52:54.830Z,3.30
2022-10-12T11:55:48.132Z,3.13
2022-10-12T11:58:42.225Z,5.13
2022-10-12T12:01:21.528Z,3.70
2022-10-12T12:04:48.582Z,3.50
2022-10-12T12:07:35.234Z,3.20
2022-10-12T12:10:25.576Z,3.50
2022-10-12T12:13:15.310Z,3.63
2022-10-12T12:15:49.918Z,2.95
2022-10-12T12:18:22.948Z,3.08
2022-10-12T12:21:06.105Z,3.25
2022-10-12T12:23:51.561Z,3.90
2022-10-12T12:26:21.608Z,3.45
2022-10-12T12:29:09.621Z,3.60
2022-10-12T12:31:37.762Z,3.30
2022-10-12T12:34:14.563Z,3.83
2022-10-12T12:36:46.353Z,3.55
2022-10-12T12:39:24.694Z,4.28
2022-10-12T12:42:06.855Z,3.53
2022-10-12T12:47:26.033Z,3.83
2022-10-12T12:49:54.127Z,3.17
2022-10-12T12:52:34.325Z,3.60
2022-10-12T12:55:35.276Z,3.47
2022-10-12T12:58:08.494Z,3.60
2022-10-12T13:01:06.516Z,3.78
2022-10-12T13:03:47.962Z,3.30
2022-10-12T13:06:40.170Z,3.28
2022-10-12T13:09:26.690Z,3.22
2022-10-12T13:12:15.053Z,3.25
2022-10-12T13:15:00.933Z,10.02
2022-10-12T13:18:45.310Z,4.30
2022-10-12T13:21:15.945Z,3.42
2022-10-12T13:23:47.411Z,4.00
2022-10-12T13:26:21.498Z,3.47
2022-10-12T13:28:50.095Z,3.70
2022-10-12T13:31:34.714Z,3.20
2022-10-12T13:34:22.540Z,3.55
2022-10-12T13:37:03.814Z,3.75
2022-10-12T13:39:38.981Z,3.90
2022-10-12T13:42:06.847Z,4.00
2022-10-12T13:44:36.385Z,3.40
2022-10-12T13:47:24.355Z,3.67
2022-10-12T13:49:52.493Z,3.47
2022-10-12T13:52:32.555Z,4.03
2022-10-12T13:55:01.542Z,3.95
2022-10-12T13:57:39.183Z,3.65
2022-10-12T14:00:16.027Z,3.75
2022-10-12T14:03:06.395Z,4.57
2022-10-12T14:05:34.094Z,3.55
2022-10-12T14:08:14.162Z,4.22
2022-10-12T14:10:44.439Z,3.63
2022-10-12T14:13:15.775Z,3.60
2022-10-12T14:15:43.409Z,3.92
2022-10-12T14:18:38.168Z,3.47
2022-10-12T14:21:14.858Z,3.63
2022-10-12T14:24:09.620Z,3.55
2022-10-12T14:26:42.560Z,3.55
2022-10-12T14:29:31.428Z,3.90
2022-10-12T14:32:04.960Z,3.85
2022-10-12T14:34:38.910Z,3.17
2022-10-12T14:37:09.293Z,3.90
2022-10-12T14:39:36.863Z,3.35
2022-10-12T14:42:39.716Z,3.63
2022-10-12T14:45:24.558Z,3.92
2022-10-12T14:47:52.867Z,3.97
2022-10-12T14:50:23.948Z,3.40
2022-10-12T14:53:04.697Z,3.22
2022-10-12T14:55:34.062Z,3.72
2022-10-12T14:58:01.802Z,3.63
2022-10-12T15:00:33.413Z,3.95
2022-10-12T15:03:01.125Z,4.00
2022-10-12T15:05:31.842Z,3.45
2022-10-12T15:08:00.134Z,3.90
2022-10-12T15:10:28.495Z,3.55
2022-10-12T15:12:55.848Z,3.25
2022-10-12T15:15:28.987Z,3.60
2022-10-12T15:17:59.631Z,3.08
2022-10-12T15:20:30.793Z,2.75
2022-10-12T15:23:00.275Z,3.50
2022-10-12T15:25:49.693Z,2.88
2022-10-12T15:28:17.914Z,3.53
2022-10-12T15:31:04.550Z,3.17
2022-10-12T15:33:33.171Z,3.72
2022-10-12T15:36:01.123Z,3.60
2022-10-12T15:38:28.495Z,3.40
2022-10-12T15:40:58.037Z,3.15
2022-10-12T15:43:26.000Z,2.97
2022-10-12T15:45:56.603Z,3.38
2022-10-12T15:48:24.032Z,2.97
2022-10-12T15:50:54.150Z,3.20
2022-10-12T15:53:24.488Z,3.17
2022-10-12T15:55:53.162Z,3.03
2022-10-12T15:58:20.724Z,3.22
2022-10-12T16:00:48.447Z,3.53
2022-10-12T16:03:24.263Z,3.08
2022-10-12T16:05:53.746Z,3.20
2022-10-12T16:08:21.178Z,3.00
2022-10-12T16:10:49.036Z,3.38
2022-10-12T16:13:17.501Z,3.35
2022-10-12T16:15:45.072Z,3.67
2022-10-12T16:18:15.467Z,3.45
2022-10-12T16:20:42.866Z,3.78
2022-10-12T16:23:15.912Z,3.70
2022-10-12T16:25:46.142Z,3.60
2022-10-12T16:28:13.614Z,3.35
2022-10-12T16:30:41.995Z,3.50
2022-10-12T16:33:09.616Z,3.25
2022-10-12T16:35:39.379Z,3.10
2022-10-12T16:38:09.058Z,3.28
2022-10-12T16:40:41.062Z,3.22
2022-10-12T16:43:09.438Z,3.08
2022-10-12T16:45:37.471Z,3.65
2022-10-12T16:48:05.225Z,3.47
2022-10-12T16:50:33.172Z,3.50
2022-10-12T16:53:00.486Z,3.47
2022-10-12T16:55:27.904Z,3.45
2022-10-12T16:57:56.997Z,4.15
2022-10-12T17:00:24.348Z,3.50
2022-10-12T17:02:55.270Z,3.60
2022-10-12T17:05:24.778Z,3.67
2022-10-12T17:07:52.074Z,4.57
2022-10-12T17:10:19.589Z,4.18
2022-10-12T17:12:46.978Z,3.65
2022-10-12T17:15:14.378Z,4.72
2022-10-12T17:17:41.757Z,5.03
2022-10-12T17:20:09.682Z,5.05
2022-10-12T17:22:37.162Z,5.10
2022-10-12T17:25:04.843Z,5.25
2022-10-12T17:27:32.528Z,4.97
2022-10-12T17:29:59.954Z,5.35
2022-10-12T17:32:27.410Z,5.70
2022-10-12T17:34:54.782Z,5.88
2022-10-12T17:37:22.222Z,5.65
2022-10-12T17:39:50.412Z,5.65
2022-10-12T17:42:20.534Z,5.88
2022-10-12T17:44:47.873Z,6.15
2022-10-12T17:47:15.438Z,7.38
2022-10-12T17:49:42.992Z,6.07
2022-10-12T17:52:10.582Z,6.75
2022-10-12T17:54:37.858Z,6.85
2022-10-12T17:57:05.276Z,6.45
2022-10-12T17:59:32.695Z,6.47
2022-10-12T18:02:00.035Z,5.65
2022-10-12T18:04:27.368Z,4.95
2022-10-12T18:06:54.809Z,5.65
2022-10-12T18:09:22.162Z,5.85
2022-10-12T18:11:49.538Z,6.40
2022-10-12T18:14:16.902Z,5.57
2022-10-12T18:16:44.330Z,6.10
2022-10-12T18:19:14.596Z,6.28
2022-10-12T18:21:42.006Z,6.47
2022-10-12T18:24:16.517Z,5.55
2022-10-12T18:26:47.348Z,5.80
2022-10-12T18:29:18.000Z,6.43
2022-10-12T18:31:45.382Z,6.18
2022-10-12T18:34:12.879Z,6.28
2022-10-12T18:36:42.686Z,6.85
2022-10-12T18:39:10.152Z,7.72
2022-10-12T18:41:38.253Z,7.65
2022-10-12T18:44:05.622Z,8.00
2022-10-12T18:46:34.425Z,8.50
2022-10-12T18:49:05.148Z,7.20
2022-10-12T18:51:35.584Z,6.78
2022-10-12T18:54:06.889Z,6.10
2022-10-12T18:56:36.241Z,6.22
2022-10-12T18:59:04.456Z,6.43
2022-10-12T19:01:32.519Z,6.30
2022-10-12T19:04:01.875Z,5.97
2022-10-12T19:06:31.409Z,5.72
2022-10-12T19:08:59.807Z,5.72
2022-10-12T19:11:29.387Z,6.10
2022-10-12T19:13:58.224Z,6.28
2022-10-12T19:16:26.955Z,5.78
2022-10-12T19:18:59.979Z,6.32
2022-10-12T19:21:30.747Z,6.65
2022-10-12T19:24:01.451Z,6.80
2022-10-12T19:26:32.327Z,6.43
2022-10-12T19:29:00.031Z,6.45
2022-10-12T19:31:34.021Z,6.70
2022-10-12T19:34:05.177Z,7.68
2022-10-12T19:36:32.937Z,7.07
2022-10-12T19:39:02.910Z,6.60
2022-10-12T19:41:30.998Z,7.28
2022-10-12T19:43:59.957Z,7.25
2022-10-12T19:46:28.201Z,7.30
2022-10-12T19:48:57.451Z,7.40
2022-10-12T19:51:26.351Z,7.00
2022-10-12T19:53:55.044Z,7.35
2022-10-12T19:56:23.637Z,6.82
2022-10-12T19:58:53.756Z,7.45
2022-10-12T20:01:24.323Z,7.25
2022-10-12T20:03:52.157Z,7.18
2022-10-12T20:06:21.797Z,7.18
2022-10-12T20:08:51.594Z,7.22
2022-10-12T20:11:23.906Z,6.75
2022-10-12T20:13:52.467Z,6.75
2022-10-12T20:16:21.154Z,6.70
2022-10-12T20:18:49.685Z,7.10
2022-10-12T20:21:22.095Z,7.03
2022-10-12T20:23:50.182Z,6.70
2022-10-12T20:26:23.861Z,6.43
2022-10-12T20:28:52.565Z,7.18
2022-10-12T20:31:23.373Z,6.18
2022-10-12T20:33:55.879Z,7.22
2022-10-12T20:36:26.607Z,6.70
2022-10-12T20:38:54.135Z,6.90
2022-10-12T20:41:21.926Z,7.15
2022-10-12T20:43:49.335Z,6.22
2022-10-12T20:46:18.503Z,6.70
2022-10-12T20:48:46.286Z,6.70
2022-10-12T20:51:35.929Z,6.65
2022-10-12T20:54:05.698Z,6.93
2022-10-12T20:56:33.554Z,6.63
2022-10-12T20:59:01.452Z,7.10
2022-10-12T21:01:29.357Z,6.63
2022-10-12T21:03:57.281Z,6.82
2022-10-12T21:06:25.087Z,6.63
2022-10-12T21:08:55.072Z,6.13
2022-10-12T21:11:23.576Z,7.05
2022-10-12T21:13:51.206Z,7.05
2022-10-12T21:16:19.278Z,7.18
2022-10-12T21:18:46.839Z,6.40
2022-10-12T21:21:17.187Z,6.97
2022-10-12T21:23:55.971Z,7.05
2022-10-12T21:26:25.582Z,6.72
2022-10-12T21:28:53.727Z,6.95
2022-10-12T21:31:22.183Z,6.65
2022-10-12T21:33:49.657Z,6.50
2022-10-12T21:36:18.210Z,6.63
2022-10-12T21:38:46.981Z,6.10
2022-10-12T21:41:15.739Z,6.30
2022-10-12T21:43:43.353Z,6.57
2022-10-12T21:46:13.813Z,6.10
2022-10-12T21:48:41.495Z,6.65
2022-10-12T21:51:09.303Z,7.20
2022-10-12T21:53:38.026Z,6.43
2022-10-12T21:56:12.953Z,6.20
2022-10-12T21:58:40.480Z,6.47
2022-10-12T22:01:11.041Z,5.75
2022-10-12T22:03:38.418Z,6.03
2022-10-12T22:06:06.418Z,6.10
2022-10-12T22:08:33.788Z,6.55
2022-10-12T22:11:08.964Z,6.22
2022-10-12T22:13:36.555Z,6.45
2022-10-12T22:16:06.859Z,6.30
2022-10-12T22:18:34.982Z,6.55
2022-10-12T22:21:04.592Z,6.55
2022-10-12T22:23:32.584Z,6.55
2022-10-12T22:26:06.467Z,6.03
2022-10-12T22:31:07.494Z,6.20
2022-10-12T22:36:04.359Z,6.63
2022-10-12T22:38:32.767Z,6.35
2022-10-12T22:41:08.312Z,6.17
2022-10-12T22:43:42.864Z,6.68
2022-10-12T22:46:10.523Z,6.93
2022-10-12T22:48:38.288Z,6.82
2022-10-12T22:51:06.773Z,6.43
2022-10-12T22:53:35.619Z,6.28
2022-10-12T22:56:06.603Z,5.90
2022-10-12T22:58:35.172Z,6.72
2022-10-12T23:01:04.470Z,6.18
2022-10-12T23:03:33.552Z,6.53
2022-10-12T23:06:04.628Z,6.43
2022-10-12T23:08:32.398Z,6.50
2022-10-12T23:11:07.508Z,5.97
2022-10-12T23:13:37.210Z,6.40
2022-10-12T23:16:16.082Z,5.82
2022-10-12T23:18:44.100Z,5.57
2022-10-12T23:21:14.546Z,6.28
2022-10-12T23:23:43.368Z,5.85
2022-10-12T23:26:22.410Z,5.90
2022-10-12T23:28:50.742Z,6.13
2022-10-12T23:31:26.768Z,6.50
2022-10-12T23:33:57.257Z,5.88
2022-10-12T23:36:25.304Z,6.10
2022-10-12T23:38:52.623Z,5.93
2022-10-12T23:41:20.386Z,6.70
2022-10-12T23:43:47.771Z,6.28
2022-10-12T23:46:15.191Z,6.07
2022-10-12T23:48:42.434Z,6.53
2022-10-12T23:51:10.930Z,6.35
2022-10-12T23:53:39.063Z,6.50
2022-10-12T23:56:07.003Z,6.07
2022-10-12T23:58:35.143Z,6.50
